createdAt,value
2023-07-18T00:01:57.508Z,101007.16
2023-07-18T00:04:30.657Z,101008.78
2023-07-18T00:07:01.080Z,101011.16
2023-07-18T00:09:31.268Z,101018.34
2023-07-18T00:12:02.358Z,101013.56
2023-07-18T00:14:33.721Z,101007.59
2023-07-18T00:17:03.940Z,101011.16
2023-07-18T00:19:36.786Z,101010.78
2023-07-18T00:22:09.017Z,101011.56
2023-07-18T00:24:40.004Z,101013.56
2023-07-18T00:27:10.253Z,101015.13
2023-07-18T00:29:40.625Z,101019.91
2023-07-18T00:32:11.649Z,101023.09
2023-07-18T00:34:45.635Z,101011.16
2023-07-18T00:37:17.281Z,101021.50
2023-07-18T00:39:47.612Z,101014.38
2023-07-18T00:42:19.450Z,101008.75
2023-07-18T00:44:53.766Z,101015.94
2023-07-18T00:55:42.917Z,101000.81
2023-07-18T00:58:14.293Z,101012.72
2023-07-18T01:00:44.974Z,100999.59
2023-07-18T01:03:17.536Z,101007.97
2023-07-18T01:05:50.931Z,101004.38
2023-07-18T01:08:22.402Z,101005.94
2023-07-18T01:10:57.578Z,101005.56
2023-07-18T01:13:27.862Z,101009.53
2023-07-18T01:15:58.917Z,101003.94
2023-07-18T01:18:29.666Z,101006.38
2023-07-18T01:21:06.290Z,101001.19
2023-07-18T01:23:39.668Z,101001.59
2023-07-18T01:26:13.665Z,101006.34
2023-07-18T01:28:44.858Z,100997.22
2023-07-18T01:31:16.167Z,100996.81
2023-07-18T01:33:47.466Z,100998.00
2023-07-18T01:36:18.088Z,101002.78
2023-07-18T01:38:53.647Z,100970.53
2023-07-18T01:41:23.900Z,100966.94
2023-07-18T01:43:54.097Z,100982.06
2023-07-18T01:46:24.707Z,100989.66
2023-07-18T01:48:54.795Z,100984.47
2023-07-18T01:51:25.668Z,100990.44
2023-07-18T01:53:58.988Z,100965.34
2023-07-18T01:56:28.861Z,100994.03
2023-07-18T01:58:58.585Z,100980.09
2023-07-18T02:01:28.323Z,100984.81
2023-07-18T02:04:01.199Z,100988.03
2023-07-18T02:06:30.985Z,100993.19
2023-07-18T02:09:05.562Z,100992.78
2023-07-18T02:11:35.337Z,100993.97
2023-07-18T02:14:05.287Z,100994.75
2023-07-18T02:16:36.044Z,100996.75
2023-07-18T02:19:07.643Z,101003.88
2023-07-18T02:21:37.534Z,100998.31
2023-07-18T02:24:09.937Z,101005.88
2023-07-18T02:26:40.054Z,100998.31
2023-07-18T02:29:09.855Z,101006.19
2023-07-18T02:31:39.577Z,101004.19
2023-07-18T02:34:09.440Z,100998.25
2023-07-18T02:36:39.316Z,101004.59
2023-07-18T02:39:12.149Z,100999.03
2023-07-18T02:41:41.892Z,101012.94
2023-07-18T02:44:11.786Z,101009.34
2023-07-18T02:46:41.731Z,101008.94
2023-07-18T02:49:11.421Z,101014.13
2023-07-18T02:51:41.180Z,101010.97
2023-07-18T02:54:13.581Z,101010.91
2023-07-18T02:56:43.422Z,101011.28
2023-07-18T02:59:13.230Z,101022.84
2023-07-18T03:01:45.849Z,101024.81
2023-07-18T03:04:15.742Z,101028.03
2023-07-18T03:06:52.448Z,101027.53
2023-07-18T03:09:25.171Z,101031.13
2023-07-18T03:11:55.157Z,101043.44
2023-07-18T03:14:25.741Z,101045.00
2023-07-18T03:16:55.694Z,101041.00
2023-07-18T03:19:26.044Z,101051.38
2023-07-18T03:21:56.822Z,101050.16
2023-07-18T03:24:29.287Z,101050.59
2023-07-18T03:26:59.141Z,101051.38
2023-07-18T03:29:29.006Z,101052.13
2023-07-18T03:32:00.858Z,101048.97
2023-07-18T03:34:31.485Z,101045.00
2023-07-18T03:37:01.523Z,101044.22
2023-07-18T03:39:33.949Z,101046.28
2023-07-18T03:42:03.934Z,101052.63
2023-07-18T03:44:33.636Z,101057.03
2023-07-18T03:47:19.317Z,101057.84
2023-07-18T03:49:50.864Z,101052.69
2023-07-18T03:52:20.492Z,101046.34
2023-07-18T03:54:53.017Z,101042.38
2023-07-18T03:57:22.851Z,101037.28
2023-07-18T03:59:52.784Z,101041.66
2023-07-18T04:02:22.639Z,101025.34
2023-07-18T04:04:52.289Z,101024.59
2023-07-18T04:07:22.738Z,101029.78
2023-07-18T04:09:55.379Z,101018.66
2023-07-18T04:12:25.181Z,101017.84
2023-07-18T04:14:54.992Z,101018.25
2023-07-18T04:17:25.746Z,101013.88
2023-07-18T04:19:56.164Z,101015.09
2023-07-18T04:22:26.208Z,101011.50
2023-07-18T04:24:59.898Z,101005.19
2023-07-18T04:27:29.845Z,101004.75
2023-07-18T04:29:59.550Z,101004.38
2023-07-18T04:32:29.425Z,101016.75
2023-07-18T04:34:59.112Z,101014.34
2023-07-18T04:37:29.495Z,101011.13
2023-07-18T04:40:01.991Z,101013.97
2023-07-18T04:42:35.685Z,101004.44
2023-07-18T04:45:07.306Z,101004.41
2023-07-18T04:47:37.963Z,101006.03
2023-07-18T04:50:11.941Z,101006.44
2023-07-18T04:52:41.942Z,100995.28
2023-07-18T04:55:14.587Z,100996.88
2023-07-18T04:57:44.528Z,100992.91
2023-07-18T05:00:16.262Z,100997.69
2023-07-18T05:02:46.232Z,100991.72
2023-07-18T05:05:17.162Z,100990.91
2023-07-18T05:07:48.420Z,100989.72
2023-07-18T05:10:20.854Z,100990.09
2023-07-18T05:12:50.740Z,100995.69
2023-07-18T05:15:21.839Z,100987.72
2023-07-18T05:17:52.369Z,100984.94
2023-07-18T05:20:22.826Z,100984.84
2023-07-18T05:22:52.725Z,100985.25
2023-07-18T05:25:25.656Z,100981.22
2023-07-18T05:27:55.493Z,100983.19
2023-07-18T05:30:26.369Z,100979.53
2023-07-18T05:32:56.982Z,100984.69
2023-07-18T05:35:27.087Z,100982.28
2023-07-18T05:37:57.590Z,100990.25
2023-07-18T05:40:30.016Z,100995.00
2023-07-18T05:42:59.764Z,100991.78
2023-07-18T05:45:29.385Z,100994.22
2023-07-18T05:47:59.230Z,100995.75
2023-07-18T05:50:28.940Z,100998.53
2023-07-18T05:52:58.615Z,100990.13
2023-07-18T05:55:31.451Z,100997.72
2023-07-18T05:58:01.191Z,101004.88
2023-07-18T06:00:31.626Z,101007.25
2023-07-18T06:03:01.536Z,101005.19
2023-07-18T06:05:31.459Z,101009.81
2023-07-18T06:08:01.265Z,101011.41
2023-07-18T06:10:33.772Z,101007.81
2023-07-18T06:13:03.565Z,101007.75
2023-07-18T06:15:33.238Z,101007.19
2023-07-18T06:18:03.454Z,100996.16
2023-07-18T06:20:33.891Z,100997.09
2023-07-18T06:23:03.608Z,100994.47
2023-07-18T06:25:37.860Z,100990.97
2023-07-18T06:28:08.657Z,100990.94
2023-07-18T06:30:38.577Z,100997.53
2023-07-18T06:33:08.280Z,100982.41
2023-07-18T06:35:38.560Z,100995.09
2023-07-18T06:38:08.198Z,100990.63
2023-07-18T06:40:40.555Z,100983.63
2023-07-18T06:43:10.422Z,100989.69
2023-07-18T06:45:40.078Z,100984.25
2023-07-18T06:48:10.166Z,100987.63
2023-07-18T06:50:40.054Z,100979.22
2023-07-18T06:53:09.724Z,100987.09
2023-07-18T06:55:42.484Z,100985.81
2023-07-18T06:58:12.537Z,100979.34
2023-07-18T07:00:43.466Z,100975.00
2023-07-18T07:03:13.497Z,100973.81
2023-07-18T07:05:44.773Z,100967.38
2023-07-18T07:08:17.319Z,100969.25
2023-07-18T07:10:50.166Z,100962.34
2023-07-18T07:13:20.669Z,100960.19
2023-07-18T07:15:50.435Z,100960.19
2023-07-18T07:18:20.217Z,100957.09
2023-07-18T07:20:50.081Z,100956.59
2023-07-18T07:23:19.861Z,100956.19
2023-07-18T07:25:52.224Z,100958.06
2023-07-18T07:28:24.172Z,100945.28
2023-07-18T07:30:54.315Z,100943.91
2023-07-18T07:33:24.043Z,100937.50
2023-07-18T07:35:53.772Z,100944.00
2023-07-18T07:38:23.975Z,100942.56
2023-07-18T07:40:56.415Z,100947.81
2023-07-18T07:43:26.266Z,100951.88
2023-07-18T07:45:55.950Z,100955.03
2023-07-18T07:48:25.648Z,100937.13
2023-07-18T07:50:55.541Z,100953.38
2023-07-18T07:53:25.160Z,100935.84
2023-07-18T07:55:57.531Z,100948.66
2023-07-18T07:58:27.215Z,100945.34
2023-07-18T08:00:56.865Z,100937.59
2023-07-18T08:03:26.741Z,100944.78
2023-07-18T08:05:56.368Z,100942.09
2023-07-18T08:08:26.707Z,100934.13
2023-07-18T08:10:59.233Z,100929.00
2023-07-18T08:13:29.534Z,100925.47
2023-07-18T08:15:59.567Z,100924.78
2023-07-18T08:18:29.196Z,100924.75
2023-07-18T08:20:59.150Z,100928.06
2023-07-18T08:23:29.167Z,100938.13
2023-07-18T08:26:01.602Z,100928.19
2023-07-18T08:28:31.526Z,100931.28
2023-07-18T08:31:01.194Z,100932.88
2023-07-18T08:33:30.912Z,100924.63
2023-07-18T08:36:01.011Z,100925.94
2023-07-18T08:38:30.777Z,100930.78
2023-07-18T08:41:03.499Z,100936.06
2023-07-18T08:43:35.143Z,100936.47
2023-07-18T08:46:07.065Z,100922.97
2023-07-18T08:48:36.939Z,100923.16
2023-07-18T08:51:07.213Z,100912.34
2023-07-18T08:53:37.256Z,100919.44
2023-07-18T08:56:09.803Z,100914.66
2023-07-18T08:58:40.293Z,100907.75
2023-07-18T09:01:11.522Z,100912.66
2023-07-18T09:03:41.488Z,100902.09
2023-07-18T09:06:22.125Z,100897.59
2023-07-18T09:08:57.768Z,100899.34
2023-07-18T09:11:31.067Z,100898.50
2023-07-18T09:14:00.917Z,100896.31
2023-07-18T09:16:30.950Z,100891.53
2023-07-18T09:19:01.438Z,100895.06
2023-07-18T09:21:35.789Z,100899.63
2023-07-18T09:24:07.846Z,100896.00
2023-07-18T09:26:40.238Z,100887.84
2023-07-18T09:29:13.399Z,100889.06
2023-07-18T09:31:43.434Z,100880.63
2023-07-18T09:34:15.674Z,100878.38
2023-07-18T09:36:58.180Z,100870.69
2023-07-18T09:39:29.164Z,100889.28
2023-07-18T09:42:03.941Z,100875.84
2023-07-18T09:44:36.740Z,100878.41
2023-07-18T09:47:08.907Z,100866.44
2023-07-18T09:49:41.034Z,100873.00
2023-07-18T09:52:12.494Z,100865.28
2023-07-18T09:54:43.316Z,100864.34
2023-07-18T09:57:20.450Z,100866.50
2023-07-18T09:59:52.540Z,100856.44
2023-07-18T10:02:22.618Z,100855.53
2023-07-18T10:04:52.443Z,100842.31
2023-07-18T10:07:23.499Z,100840.53
2023-07-18T10:09:53.714Z,100847.28
2023-07-18T10:12:26.102Z,100842.06
2023-07-18T10:14:58.602Z,100852.38
2023-07-18T10:17:29.827Z,100845.22
2023-07-18T10:19:59.736Z,100842.84
2023-07-18T10:22:30.575Z,100834.75
2023-07-18T10:25:06.161Z,100838.31
2023-07-18T10:27:43.747Z,100836.78
2023-07-18T10:30:17.433Z,100830.06
2023-07-18T10:32:54.974Z,100818.53
2023-07-18T10:35:27.081Z,100818.75
2023-07-18T10:38:00.058Z,100826.84
2023-07-18T10:40:38.652Z,100817.69
2023-07-18T10:43:13.497Z,100807.34
2023-07-18T10:45:45.269Z,100800.63
2023-07-18T10:48:16.610Z,100806.69
2023-07-18T10:50:47.722Z,100811.88
2023-07-18T10:53:18.901Z,100803.22
2023-07-18T10:55:50.244Z,100808.31
2023-07-18T10:58:24.255Z,100795.19
2023-07-18T11:00:54.385Z,100788.19
2023-07-18T11:03:28.632Z,100798.28
2023-07-18T11:05:58.595Z,100781.69
2023-07-18T11:08:29.380Z,100791.09
2023-07-18T11:11:01.528Z,100788.19
2023-07-18T11:13:36.174Z,100787.03
2023-07-18T11:16:09.577Z,100790.66
2023-07-18T11:18:40.042Z,100783.50
2023-07-18T11:21:11.508Z,100788.47
2023-07-18T11:23:42.725Z,100789.81
2023-07-18T11:26:16.866Z,100791.53
2023-07-18T11:28:53.187Z,100788.75
2023-07-18T11:33:59.023Z,100801.84
2023-07-18T11:36:32.150Z,100786.34
2023-07-18T11:39:02.630Z,100794.84
2023-07-18T11:41:36.447Z,100786.47
2023-07-18T11:44:10.013Z,100781.09
2023-07-18T11:46:41.049Z,100781.66
2023-07-18T11:49:11.491Z,100792.34
2023-07-18T11:51:41.350Z,100789.38
2023-07-18T11:54:11.210Z,100785.53
2023-07-18T11:56:40.930Z,100784.75
2023-07-18T11:59:13.232Z,100786.66
2023-07-18T12:01:43.190Z,100784.59
2023-07-18T12:04:15.558Z,100780.06
2023-07-18T12:06:45.461Z,100779.78
2023-07-18T12:09:15.188Z,100780.53
2023-07-18T12:11:46.895Z,100776.56
2023-07-18T12:14:19.216Z,100774.16
2023-07-18T12:16:49.108Z,100784.06
2023-07-18T12:19:21.637Z,100769.28
2023-07-18T12:21:52.180Z,100772.31
2023-07-18T12:24:22.381Z,100761.16
2023-07-18T12:26:52.069Z,100756.88
2023-07-18T12:29:24.573Z,100765.16
2023-07-18T12:31:55.005Z,100755.31
2023-07-18T12:34:25.138Z,100740.09
2023-07-18T12:36:54.743Z,100746.13
2023-07-18T12:39:24.402Z,100751.03
2023-07-18T12:41:54.189Z,100734.94
2023-07-18T12:44:40.759Z,100733.25
2023-07-18T12:47:11.152Z,100738.91
2023-07-18T12:52:14.252Z,100715.34
2023-07-18T12:54:44.573Z,100708.03
2023-07-18T12:57:14.400Z,100695.09
2023-07-18T12:59:47.032Z,100698.31
2023-07-18T13:02:17.138Z,100687.22
2023-07-18T13:04:46.797Z,100687.53
2023-07-18T13:07:16.797Z,100676.75
2023-07-18T13:09:46.698Z,100674.66
2023-07-18T13:12:16.676Z,100665.81
2023-07-18T13:14:48.980Z,100660.03
2023-07-18T13:17:22.239Z,100659.03
2023-07-18T13:19:52.001Z,100656.16
2023-07-18T13:22:21.623Z,100649.16
2023-07-18T13:24:51.411Z,100650.38
2023-07-18T13:27:21.141Z,100643.91
2023-07-18T13:29:53.559Z,100639.56
2023-07-18T13:32:23.530Z,100634.59
2023-07-18T13:34:54.599Z,100643.84
2023-07-18T13:37:24.518Z,100634.78
2023-07-18T13:39:54.194Z,100622.66
2023-07-18T13:42:23.813Z,100622.47
2023-07-18T13:44:56.334Z,100623.25
2023-07-18T13:47:26.290Z,100620.56
2023-07-18T13:49:56.015Z,100614.03
2023-07-18T13:52:26.723Z,100623.13
2023-07-18T13:54:57.283Z,100622.81
2023-07-18T13:57:27.110Z,100621.06
2023-07-18T13:59:59.558Z,100620.69
2023-07-18T14:02:29.587Z,100625.28
2023-07-18T14:04:59.270Z,100616.75
2023-07-18T14:07:28.931Z,100611.31
2023-07-18T14:09:59.049Z,100623.00
2023-07-18T14:12:28.797Z,100619.34
2023-07-18T14:15:01.630Z,100614.81
2023-07-18T14:17:31.492Z,100610.63
2023-07-18T14:20:01.171Z,100607.25
2023-07-18T14:22:31.013Z,100611.81
2023-07-18T14:25:00.628Z,100605.47
2023-07-18T14:27:30.405Z,100613.59
2023-07-18T14:30:02.963Z,100610.84
2023-07-18T14:32:32.888Z,100599.75
2023-07-18T14:35:02.604Z,100595.78
2023-07-18T14:37:32.407Z,100594.13
2023-07-18T14:40:05.380Z,100597.31
2023-07-18T14:42:35.409Z,100602.44
2023-07-18T14:45:08.769Z,100594.25
2023-07-18T14:47:38.629Z,100588.63
2023-07-18T14:50:09.268Z,100575.88
2023-07-18T14:52:39.166Z,100571.00
2023-07-18T14:55:09.593Z,100559.28
2023-07-18T14:57:39.377Z,100558.38
2023-07-18T15:00:13.159Z,100543.22
2023-07-18T15:02:43.022Z,100558.03
2023-07-18T15:05:12.832Z,100567.22
2023-07-18T15:07:42.663Z,100573.00
2023-07-18T15:10:13.344Z,100579.53
2023-07-18T15:12:45.772Z,100584.56
2023-07-18T15:15:19.395Z,100579.03
2023-07-18T15:17:50.186Z,100579.91
2023-07-18T15:20:20.080Z,100559.59
2023-07-18T15:22:52.875Z,100550.59
2023-07-18T15:25:22.968Z,100554.34
2023-07-18T15:27:52.851Z,100545.19
2023-07-18T15:30:25.266Z,100537.06
2023-07-18T15:32:55.033Z,100531.69
2023-07-18T15:35:24.873Z,100547.94
2023-07-18T15:37:54.618Z,100534.97
2023-07-18T15:40:24.337Z,100531.63
2023-07-18T15:42:54.216Z,100520.81
2023-07-18T15:45:26.620Z,100534.00
2023-07-18T15:47:56.454Z,100524.75
2023-07-18T15:50:26.135Z,100506.34
2023-07-18T15:52:56.213Z,100509.47
2023-07-18T15:55:25.878Z,100509.09
2023-07-18T15:57:55.570Z,100506.84
2023-07-18T16:00:28.014Z,100501.47
2023-07-18T16:02:57.882Z,100495.25
2023-07-18T16:05:27.612Z,100489.91
2023-07-18T16:07:57.344Z,100492.25
2023-07-18T16:10:27.218Z,100487.25
2023-07-18T16:12:56.857Z,100483.56
2023-07-18T16:15:29.419Z,100483.22
2023-07-18T16:18:04.255Z,100473.38
2023-07-18T16:20:34.273Z,100472.34
2023-07-18T16:23:05.927Z,100468.03
2023-07-18T16:25:35.894Z,100463.59
2023-07-18T16:28:06.544Z,100459.72
2023-07-18T16:30:38.997Z,100459.09
2023-07-18T16:33:08.873Z,100451.56
2023-07-18T16:35:39.759Z,100443.63
2023-07-18T16:38:09.506Z,100451.84
2023-07-18T16:40:40.531Z,100443.72
2023-07-18T16:43:10.210Z,100446.69
2023-07-18T16:45:44.015Z,100438.31
2023-07-18T16:48:13.818Z,100422.59
2023-07-18T16:50:44.096Z,100425.81
2023-07-18T16:53:13.960Z,100426.25
2023-07-18T16:55:44.126Z,100427.72
2023-07-18T16:58:13.771Z,100424.00
2023-07-18T17:00:46.335Z,100412.34
2023-07-18T17:03:16.386Z,100409.50
2023-07-18T17:05:46.334Z,100409.56
2023-07-18T17:08:16.111Z,100415.75
2023-07-18T17:10:45.854Z,100411.50
2023-07-18T17:13:15.690Z,100409.38
2023-07-18T17:15:47.905Z,100404.47
2023-07-18T17:18:17.751Z,100403.31
2023-07-18T17:20:47.418Z,100397.34
2023-07-18T17:23:17.254Z,100402.22
2023-07-18T17:25:46.960Z,100400.06
2023-07-18T17:28:16.716Z,100396.94
2023-07-18T17:30:49.000Z,100401.44
2023-07-18T17:33:18.769Z,100397.59
2023-07-18T17:35:48.449Z,100398.38
2023-07-18T17:38:18.774Z,100394.47
2023-07-18T17:40:49.555Z,100396.25
2023-07-18T17:43:21.576Z,100390.53
2023-07-18T17:45:54.056Z,100384.63
2023-07-18T17:48:23.882Z,100380.69
2023-07-18T17:50:53.644Z,100379.72
2023-07-18T17:53:23.293Z,100374.53
2023-07-18T17:55:53.095Z,100382.16
2023-07-18T17:58:22.983Z,100384.09
2023-07-18T18:00:55.588Z,100382.53
2023-07-18T18:03:25.441Z,100374.66
2023-07-18T18:05:55.316Z,100375.53
2023-07-18T18:08:25.084Z,100373.31
2023-07-18T18:10:54.962Z,100363.28
2023-07-18T18:13:25.370Z,100365.84
2023-07-18T18:16:07.354Z,100370.25
2023-07-18T18:18:39.102Z,100354.28
2023-07-18T18:21:11.984Z,100358.28
2023-07-18T18:23:44.606Z,100356.50
2023-07-18T18:26:14.403Z,100357.41
2023-07-18T18:28:46.513Z,100359.72
2023-07-18T18:31:57.268Z,100353.16
2023-07-18T18:34:31.335Z,100352.63
2023-07-18T18:37:01.398Z,100355.78
2023-07-18T18:39:31.064Z,100347.97
2023-07-18T18:42:02.630Z,100342.09
2023-07-18T18:44:32.418Z,100349.47
2023-07-18T18:47:04.808Z,100352.91
2023-07-18T18:49:34.529Z,100355.44
2023-07-18T18:52:04.303Z,100354.59
2023-07-18T18:54:33.975Z,100359.38
2023-07-18T18:57:03.973Z,100357.47
2023-07-18T18:59:33.637Z,100359.03
2023-07-18T19:02:06.083Z,100353.69
2023-07-18T19:04:38.271Z,100354.34
2023-07-18T19:07:08.842Z,100356.56
2023-07-18T19:09:39.774Z,100346.59
2023-07-18T19:12:11.109Z,100348.13
2023-07-18T19:14:42.687Z,100335.56
2023-07-18T19:17:15.742Z,100336.03
2023-07-18T19:19:47.945Z,100328.97
2023-07-18T19:22:19.572Z,100338.56
2023-07-18T19:24:50.286Z,100335.78
2023-07-18T19:27:20.454Z,100341.16
2023-07-18T19:29:50.291Z,100331.91
2023-07-18T19:32:22.707Z,100338.97
2023-07-18T19:34:52.551Z,100333.97
2023-07-18T19:37:22.145Z,100332.53
2023-07-18T19:39:52.058Z,100341.66
2023-07-18T19:42:21.662Z,100339.47
2023-07-18T19:44:51.306Z,100341.19
2023-07-18T19:47:23.679Z,100346.38
2023-07-18T19:49:53.588Z,100346.69
2023-07-18T19:52:23.241Z,100342.97
2023-07-18T19:54:52.924Z,100346.72
2023-07-18T19:57:23.285Z,100341.56
2023-07-18T19:59:53.622Z,100345.03
2023-07-18T20:02:25.962Z,100359.13
2023-07-18T20:04:55.878Z,100344.69
2023-07-18T20:07:25.485Z,100340.31
2023-07-18T20:09:56.607Z,100345.00
2023-07-18T20:12:26.519Z,100340.13
2023-07-18T20:14:56.503Z,100346.09
2023-07-18T20:17:29.018Z,100348.59
2023-07-18T20:20:02.790Z,100348.59
2023-07-18T20:22:32.995Z,100342.78
2023-07-18T20:25:03.094Z,100344.00
2023-07-18T20:27:34.788Z,100341.81
2023-07-18T20:30:05.496Z,100339.47
2023-07-18T20:32:38.253Z,100343.22
2023-07-18T20:35:09.596Z,100341.31
2023-07-18T20:37:40.360Z,100340.69
2023-07-18T20:40:11.713Z,100339.41
2023-07-18T20:42:42.055Z,100336.59
2023-07-18T20:45:12.847Z,100339.56
2023-07-18T20:47:45.351Z,100344.53
2023-07-18T20:50:15.706Z,100335.53
2023-07-18T20:52:45.623Z,100336.81
2023-07-18T20:55:15.620Z,100332.56
2023-07-18T20:57:45.849Z,100333.00
2023-07-18T21:00:16.576Z,100327.38
2023-07-18T21:02:49.032Z,100333.66
2023-07-18T21:05:18.809Z,100345.50
2023-07-18T21:07:48.506Z,100331.03
2023-07-18T21:10:21.561Z,100331.50
2023-07-18T21:12:51.694Z,100333.00
2023-07-18T21:15:21.447Z,100328.72
2023-07-18T21:17:54.151Z,100330.94
2023-07-18T21:20:24.563Z,100327.28
2023-07-18T21:22:54.691Z,100334.28
2023-07-18T21:25:24.486Z,100332.59
2023-07-18T21:27:54.303Z,100338.41
2023-07-18T21:30:24.702Z,100334.16
2023-07-18T21:32:57.175Z,100328.13
2023-07-18T21:35:27.211Z,100328.91
2023-07-18T21:37:56.907Z,100335.69
2023-07-18T21:40:27.153Z,100328.72
2023-07-18T21:42:57.272Z,100324.25
2023-07-18T21:45:27.093Z,100316.75
2023-07-18T21:47:59.661Z,100319.78
2023-07-18T21:50:29.661Z,100312.06
2023-07-18T21:52:59.443Z,100314.81
2023-07-18T21:55:29.654Z,100303.44
2023-07-18T21:57:59.330Z,100317.56
2023-07-18T22:00:29.476Z,100310.47
2023-07-18T22:03:02.102Z,100298.09
2023-07-18T22:05:32.096Z,100308.03
2023-07-18T22:08:01.796Z,100302.63
2023-07-18T22:10:32.044Z,100302.31
2023-07-18T22:13:02.086Z,100318.84
2023-07-18T22:15:31.788Z,100320.19
2023-07-18T22:18:15.750Z,100312.56
2023-07-18T22:20:54.887Z,100310.09
2023-07-18T22:23:24.609Z,100317.19
2023-07-18T22:26:11.762Z,100318.84
2023-07-18T22:28:44.035Z,100316.94
2023-07-18T22:31:14.862Z,100308.28
2023-07-18T22:33:47.133Z,100319.75
2023-07-18T22:36:17.260Z,100320.38
2023-07-18T22:38:46.914Z,100329.16
2023-07-18T22:41:16.593Z,100322.28
2023-07-18T22:43:46.508Z,100324.78
2023-07-18T22:46:16.157Z,100311.53
2023-07-18T22:48:48.629Z,100317.88
2023-07-18T22:51:18.729Z,100315.06
2023-07-18T22:53:48.863Z,100314.59
2023-07-18T22:56:18.484Z,100309.19
2023-07-18T22:58:48.138Z,100307.41
2023-07-18T23:01:18.188Z,100303.69
2023-07-18T23:03:51.590Z,100305.16
2023-07-18T23:06:21.372Z,100305.47
2023-07-18T23:08:51.048Z,100301.22
2023-07-18T23:11:21.072Z,100290.50
2023-07-18T23:13:51.287Z,100291.44
2023-07-18T23:16:20.938Z,100290.97
2023-07-18T23:18:53.180Z,100286.25
2023-07-18T23:21:23.096Z,100285.34
2023-07-18T23:23:52.830Z,100280.19
2023-07-18T23:26:22.844Z,100288.84
2023-07-18T23:28:52.629Z,100289.09
2023-07-18T23:31:22.625Z,100292.34
2023-07-18T23:33:55.520Z,100280.75
2023-07-18T23:36:25.579Z,100276.72
2023-07-18T23:38:55.585Z,100279.97
2023-07-18T23:41:25.358Z,100276.03
2023-07-18T23:43:55.115Z,100273.69
2023-07-18T23:46:24.853Z,100269.16
2023-07-18T23:49:00.544Z,100269.84
2023-07-18T23:51:30.445Z,100275.34
2023-07-18T23:54:01.179Z,100272.75
2023-07-18T23:56:30.901Z,100267.72
2023-07-18T23:59:00.488Z,100276.78
